sensor_id;sensor_type;location;lat;lon;timestamp;P1;durP1;ratioP1;P2;durP2;ratioP2
33527;SDS011;19861;42.868;74.608;2022-10-23T00:01:25;0.13;;;0.00;;
33527;SDS011;19861;42.868;74.608;2022-10-23T00:03:54;0.00;;;0.00;;
33527;SDS011;19861;42.868;74.608;2022-10-23T00:06:21;8.55;;;7.95;;
33527;SDS011;19861;42.868;74.608;2022-10-23T00:08:48;0.52;;;0.43;;
33527;SDS011;19861;42.868;74.608;2022-10-23T00:11:19;2.33;;;2.20;;
33527;SDS011;19861;42.868;74.608;2022-10-23T00:13:46;0.00;;;0.00;;
33527;SDS011;19861;42.868;74.608;2022-10-23T00:16:13;0.77;;;0.50;;
33527;SDS011;19861;42.868;74.608;2022-10-23T00:18:39;0.00;;;0.00;;
33527;SDS011;19861;42.868;74.608;2022-10-23T00:21:07;5.60;;;5.07;;
33527;SDS011;19861;42.868;74.608;2022-10-23T00:23:34;0.00;;;0.00;;
33527;SDS011;19861;42.868;74.608;2022-10-23T00:26:01;8.00;;;2.65;;
33527;SDS011;19861;42.868;74.608;2022-10-23T00:28:27;0.00;;;0.00;;
33527;SDS011;19861;42.868;74.608;2022-10-23T00:30:53;0.93;;;0.15;;
33527;SDS011;19861;42.868;74.608;2022-10-23T00:33:20;0.00;;;0.00;;
33527;SDS011;19861;42.868;74.608;2022-10-23T00:35:46;2.63;;;2.22;;
33527;SDS011;19861;42.868;74.608;2022-10-23T00:38:12;0.00;;;0.00;;
33527;SDS011;19861;42.868;74.608;2022-10-23T00:40:39;0.00;;;0.00;;
33527;SDS011;19861;42.868;74.608;2022-10-23T00:43:06;0.95;;;0.75;;
33527;SDS011;19861;42.868;74.608;2022-10-23T00:45:35;4.18;;;1.08;;
33527;SDS011;19861;42.868;74.608;2022-10-23T00:48:02;0.00;;;0.00;;
33527;SDS011;19861;42.868;74.608;2022-10-23T00:50:29;0.20;;;0.20;;
33527;SDS011;19861;42.868;74.608;2022-10-23T00:52:56;1.67;;;1.55;;
33527;SDS011;19861;42.868;74.608;2022-10-23T00:55:24;0.00;;;0.00;;
33527;SDS011;19861;42.868;74.608;2022-10-23T00:57:50;0.00;;;0.00;;
33527;SDS011;19861;42.868;74.608;2022-10-23T01:00:22;1.17;;;1.17;;
33527;SDS011;19861;42.868;74.608;2022-10-23T01:02:49;0.00;;;0.00;;
33527;SDS011;19861;42.868;74.608;2022-10-23T01:05:15;0.20;;;0.20;;
33527;SDS011;19861;42.868;74.608;2022-10-23T01:10:15;0.00;;;0.00;;
33527;SDS011;19861;42.868;74.608;2022-10-23T01:12:49;0.00;;;0.00;;
33527;SDS011;19861;42.868;74.608;2022-10-23T01:15:51;0.00;;;0.00;;
33527;SDS011;19861;42.868;74.608;2022-10-23T01:25:54;0.00;;;0.00;;
33527;SDS011;19861;42.868;74.608;2022-10-23T01:28:27;2.13;;;2.03;;
33527;SDS011;19861;42.868;74.608;2022-10-23T01:30:54;0.10;;;0.10;;
33527;SDS011;19861;42.868;74.608;2022-10-23T01:33:24;0.00;;;0.00;;
33527;SDS011;19861;42.868;74.608;2022-10-23T01:35:59;0.00;;;0.00;;
33527;SDS011;19861;42.868;74.608;2022-10-23T01:38:27;0.00;;;0.00;;
33527;SDS011;19861;42.868;74.608;2022-10-23T01:41:05;0.00;;;0.00;;
33527;SDS011;19861;42.868;74.608;2022-10-23T01:43:40;0.30;;;0.30;;
33527;SDS011;19861;42.868;74.608;2022-10-23T01:46:17;0.00;;;0.00;;
33527;SDS011;19861;42.868;74.608;2022-10-23T01:48:50;0.00;;;0.00;;
33527;SDS011;19861;42.868;74.608;2022-10-23T01:51:18;13.68;;;7.78;;
33527;SDS011;19861;42.868;74.608;2022-10-23T01:53:46;0.95;;;0.68;;
33527;SDS011;19861;42.868;74.608;2022-10-23T01:56:14;0.00;;;0.00;;
33527;SDS011;19861;42.868;74.608;2022-10-23T01:58:44;0.00;;;0.00;;
33527;SDS011;19861;42.868;74.608;2022-10-23T02:01:15;0.00;;;0.00;;
33527;SDS011;19861;42.868;74.608;2022-10-23T02:03:43;4.15;;;3.72;;
33527;SDS011;19861;42.868;74.608;2022-10-23T02:06:12;0.00;;;0.00;;
33527;SDS011;19861;42.868;74.608;2022-10-23T02:08:39;0.47;;;0.30;;
33527;SDS011;19861;42.868;74.608;2022-10-23T02:11:08;0.00;;;0.00;;
33527;SDS011;19861;42.868;74.608;2022-10-23T02:18:45;0.00;;;0.00;;
33527;SDS011;19861;42.868;74.608;2022-10-23T02:21:22;0.00;;;0.00;;
33527;SDS011;19861;42.868;74.608;2022-10-23T02:23:58;5.85;;;0.30;;
33527;SDS011;19861;42.868;74.608;2022-10-23T02:26:27;0.47;;;0.47;;
33527;SDS011;19861;42.868;74.608;2022-10-23T02:29:05;2.40;;;0.70;;
33527;SDS011;19861;42.868;74.608;2022-10-23T02:31:35;0.00;;;0.00;;
33527;SDS011;19861;42.868;74.608;2022-10-23T02:34:02;0.00;;;0.00;;
33527;SDS011;19861;42.868;74.608;2022-10-23T02:36:28;0.00;;;0.00;;
33527;SDS011;19861;42.868;74.608;2022-10-23T02:39:03;0.00;;;0.00;;
33527;SDS011;19861;42.868;74.608;2022-10-23T02:49:07;0.10;;;0.10;;
33527;SDS011;19861;42.868;74.608;2022-10-23T02:54:15;0.00;;;0.00;;
33527;SDS011;19861;42.868;74.608;2022-10-23T02:57:46;0.00;;;0.00;;
33527;SDS011;19861;42.868;74.608;2022-10-23T02:59:44;0.10;;;0.10;;
33527;SDS011;19861;42.868;74.608;2022-10-23T03:04:41;3.08;;;2.92;;
33527;SDS011;19861;42.868;74.608;2022-10-23T03:07:13;0.00;;;0.00;;
33527;SDS011;19861;42.868;74.608;2022-10-23T03:09:40;2.55;;;2.42;;
33527;SDS011;19861;42.868;74.608;2022-10-23T03:12:06;0.15;;;0.15;;
33527;SDS011;19861;42.868;74.608;2022-10-23T03:14:33;0.00;;;0.00;;
33527;SDS011;19861;42.868;74.608;2022-10-23T03:16:59;0.00;;;0.00;;
33527;SDS011;19861;42.868;74.608;2022-10-23T03:19:25;0.40;;;0.40;;
33527;SDS011;19861;42.868;74.608;2022-10-23T03:21:52;0.20;;;0.20;;
33527;SDS011;19861;42.868;74.608;2022-10-23T03:24:18;0.00;;;0.00;;
33527;SDS011;19861;42.868;74.608;2022-10-23T03:26:44;0.10;;;0.10;;
33527;SDS011;19861;42.868;74.608;2022-10-23T03:29:11;0.22;;;0.20;;
33527;SDS011;19861;42.868;74.608;2022-10-23T03:31:37;0.00;;;0.00;;
33527;SDS011;19861;42.868;74.608;2022-10-23T03:34:03;2.45;;;0.10;;
33527;SDS011;19861;42.868;74.608;2022-10-23T03:36:35;0.00;;;0.00;;
33527;SDS011;19861;42.868;74.608;2022-10-23T03:39:01;0.00;;;0.00;;
33527;SDS011;19861;42.868;74.608;2022-10-23T03:41:28;0.00;;;0.00;;
33527;SDS011;19861;42.868;74.608;2022-10-23T03:43:57;0.00;;;0.00;;
33527;SDS011;19861;42.868;74.608;2022-10-23T03:46:24;1.30;;;1.25;;
33527;SDS011;19861;42.868;74.608;2022-10-23T03:48:50;4.00;;;0.47;;
33527;SDS011;19861;42.868;74.608;2022-10-23T03:51:16;0.10;;;0.10;;
33527;SDS011;19861;42.868;74.608;2022-10-23T03:53:43;0.00;;;0.00;;
33527;SDS011;19861;42.868;74.608;2022-10-23T03:56:09;0.10;;;0.05;;
33527;SDS011;19861;42.868;74.608;2022-10-23T03:58:35;0.00;;;0.00;;
33527;SDS011;19861;42.868;74.608;2022-10-23T04:01:02;1.65;;;1.20;;
33527;SDS011;19861;42.868;74.608;2022-10-23T04:03:28;0.00;;;0.00;;
33527;SDS011;19861;42.868;74.608;2022-10-23T04:05:54;0.15;;;0.15;;
33527;SDS011;19861;42.868;74.608;2022-10-23T04:08:21;0.00;;;0.00;;
33527;SDS011;19861;42.868;74.608;2022-10-23T04:10:47;1.65;;;0.40;;
33527;SDS011;19861;42.868;74.608;2022-10-23T04:13:13;0.00;;;0.00;;
33527;SDS011;19861;42.868;74.608;2022-10-23T04:15:40;0.52;;;0.52;;
33527;SDS011;19861;42.868;74.608;2022-10-23T04:18:06;2.00;;;0.43;;
33527;SDS011;19861;42.868;74.608;2022-10-23T04:20:32;0.00;;;0.00;;
33527;SDS011;19861;42.868;74.608;2022-10-23T04:22:58;0.00;;;0.00;;
33527;SDS011;19861;42.868;74.608;2022-10-23T04:25:25;0.00;;;0.00;;
33527;SDS011;19861;42.868;74.608;2022-10-23T04:27:51;1.55;;;0.40;;
33527;SDS011;19861;42.868;74.608;2022-10-23T04:30:17;0.00;;;0.00;;
33527;SDS011;19861;42.868;74.608;2022-10-23T04:32:44;0.10;;;0.10;;
33527;SDS011;19861;42.868;74.608;2022-10-23T04:35:10;0.00;;;0.00;;
33527;SDS011;19861;42.868;74.608;2022-10-23T04:37:36;0.00;;;0.00;;
33527;SDS011;19861;42.868;74.608;2022-10-23T04:40:03;0.00;;;0.00;;
33527;SDS011;19861;42.868;74.608;2022-10-23T04:42:29;0.98;;;0.80;;
33527;SDS011;19861;42.868;74.608;2022-10-23T04:44:55;1.25;;;0.63;;
33527;SDS011;19861;42.868;74.608;2022-10-23T04:47:22;1.65;;;1.38;;
33527;SDS011;19861;42.868;74.608;2022-10-23T04:49:49;0.20;;;0.20;;
33527;SDS011;19861;42.868;74.608;2022-10-23T04:52:15;0.95;;;0.95;;
33527;SDS011;19861;42.868;74.608;2022-10-23T04:54:41;7.97;;;0.22;;
33527;SDS011;19861;42.868;74.608;2022-10-23T04:57:08;0.00;;;0.00;;
33527;SDS011;19861;42.868;74.608;2022-10-23T04:59:34;2.90;;;1.08;;
33527;SDS011;19861;42.868;74.608;2022-10-23T05:02:00;4.55;;;4.20;;
33527;SDS011;19861;42.868;74.608;2022-10-23T05:04:27;0.10;;;0.10;;
33527;SDS011;19861;42.868;74.608;2022-10-23T05:06:53;2.35;;;0.55;;
33527;SDS011;19861;42.868;74.608;2022-10-23T05:09:19;0.00;;;0.00;;
33527;SDS011;19861;42.868;74.608;2022-10-23T05:11:46;0.30;;;0.30;;
33527;SDS011;19861;42.868;74.608;2022-10-23T05:14:13;0.10;;;0.10;;
33527;SDS011;19861;42.868;74.608;2022-10-23T05:19:08;0.00;;;0.00;;
33527;SDS011;19861;42.868;74.608;2022-10-23T05:21:35;4.10;;;1.30;;
33527;SDS011;19861;42.868;74.608;2022-10-23T05:24:03;0.00;;;0.00;;
33527;SDS011;19861;42.868;74.608;2022-10-23T05:26:30;0.00;;;0.00;;
33527;SDS011;19861;42.868;74.608;2022-10-23T05:28:56;0.00;;;0.00;;
33527;SDS011;19861;42.868;74.608;2022-10-23T05:31:23;0.00;;;0.00;;
33527;SDS011;19861;42.868;74.608;2022-10-23T05:33:50;1.40;;;0.40;;
33527;SDS011;19861;42.868;74.608;2022-10-23T05:36:17;1.65;;;0.55;;
33527;SDS011;19861;42.868;74.608;2022-10-23T05:38:44;2.80;;;2.55;;
33527;SDS011;19861;42.868;74.608;2022-10-23T05:41:10;0.00;;;0.00;;
33527;SDS011;19861;42.868;74.608;2022-10-23T05:43:37;2.17;;;2.08;;
33527;SDS011;19861;42.868;74.608;2022-10-23T05:46:04;0.20;;;0.20;;
33527;SDS011;19861;42.868;74.608;2022-10-23T05:48:30;0.00;;;0.00;;
33527;SDS011;19861;42.868;74.608;2022-10-23T05:51:07;0.00;;;0.00;;
33527;SDS011;19861;42.868;74.608;2022-10-23T05:53:33;0.00;;;0.00;;
33527;SDS011;19861;42.868;74.608;2022-10-23T05:56:04;1.10;;;1.10;;
33527;SDS011;19861;42.868;74.608;2022-10-23T05:58:30;0.00;;;0.00;;
33527;SDS011;19861;42.868;74.608;2022-10-23T06:00:57;1.55;;;0.15;;
33527;SDS011;19861;42.868;74.608;2022-10-23T06:03:23;0.00;;;0.00;;
33527;SDS011;19861;42.868;74.608;2022-10-23T06:05:50;0.20;;;0.10;;
33527;SDS011;19861;42.868;74.608;2022-10-23T06:08:16;0.00;;;0.00;;
33527;SDS011;19861;42.868;74.608;2022-10-23T06:10:43;0.08;;;0.08;;
33527;SDS011;19861;42.868;74.608;2022-10-23T06:13:09;0.00;;;0.00;;
33527;SDS011;19861;42.868;74.608;2022-10-23T06:15:35;1.35;;;1.00;;
33527;SDS011;19861;42.868;74.608;2022-10-23T06:18:03;0.15;;;0.15;;
33527;SDS011;19861;42.868;74.608;2022-10-23T06:20:29;0.00;;;0.00;;
33527;SDS011;19861;42.868;74.608;2022-10-23T06:22:55;0.43;;;0.43;;
33527;SDS011;19861;42.868;74.608;2022-10-23T06:25:22;1.70;;;1.67;;
33527;SDS011;19861;42.868;74.608;2022-10-23T06:27:49;0.10;;;0.10;;
33527;SDS011;19861;42.868;74.608;2022-10-23T06:30:15;0.00;;;0.00;;
33527;SDS011;19861;42.868;74.608;2022-10-23T06:32:42;3.72;;;3.53;;
33527;SDS011;19861;42.868;74.608;2022-10-23T06:35:08;0.00;;;0.00;;
33527;SDS011;19861;42.868;74.608;2022-10-23T06:37:34;0.75;;;0.75;;
33527;SDS011;19861;42.868;74.608;2022-10-23T06:40:01;1.23;;;1.23;;
33527;SDS011;19861;42.868;74.608;2022-10-23T06:42:30;0.00;;;0.00;;
33527;SDS011;19861;42.868;74.608;2022-10-23T06:44:56;0.00;;;0.00;;
33527;SDS011;19861;42.868;74.608;2022-10-23T06:47:23;0.00;;;0.00;;
33527;SDS011;19861;42.868;74.608;2022-10-23T06:49:49;0.52;;;0.52;;
33527;SDS011;19861;42.868;74.608;2022-10-23T06:52:15;0.00;;;0.00;;
33527;SDS011;19861;42.868;74.608;2022-10-23T06:54:42;0.00;;;0.00;;
33527;SDS011;19861;42.868;74.608;2022-10-23T06:57:08;1.20;;;0.38;;
33527;SDS011;19861;42.868;74.608;2022-10-23T06:59:34;0.20;;;0.20;;
33527;SDS011;19861;42.868;74.608;2022-10-23T07:02:00;0.20;;;0.20;;
33527;SDS011;19861;42.868;74.608;2022-10-23T07:04:26;0.00;;;0.00;;
33527;SDS011;19861;42.868;74.608;2022-10-23T07:06:55;0.75;;;0.75;;
33527;SDS011;19861;42.868;74.608;2022-10-23T07:09:22;0.52;;;0.52;;
33527;SDS011;19861;42.868;74.608;2022-10-23T07:11:48;0.60;;;0.60;;
33527;SDS011;19861;42.868;74.608;2022-10-23T07:14:14;0.75;;;0.75;;
33527;SDS011;19861;42.868;74.608;2022-10-23T07:16:40;0.55;;;0.22;;
33527;SDS011;19861;42.868;74.608;2022-10-23T07:19:07;2.00;;;1.85;;
33527;SDS011;19861;42.868;74.608;2022-10-23T07:21:33;1.85;;;1.75;;
33527;SDS011;19861;42.868;74.608;2022-10-23T07:24:00;0.13;;;0.13;;
33527;SDS011;19861;42.868;74.608;2022-10-23T07:26:27;1.67;;;0.82;;
33527;SDS011;19861;42.868;74.608;2022-10-23T07:28:53;0.13;;;0.13;;
33527;SDS011;19861;42.868;74.608;2022-10-23T07:31:20;0.05;;;0.05;;
33527;SDS011;19861;42.868;74.608;2022-10-23T07:33:47;0.00;;;0.00;;
33527;SDS011;19861;42.868;74.608;2022-10-23T07:36:14;0.00;;;0.00;;
33527;SDS011;19861;42.868;74.608;2022-10-23T07:38:40;1.27;;;0.55;;
33527;SDS011;19861;42.868;74.608;2022-10-23T07:41:06;0.85;;;0.85;;
33527;SDS011;19861;42.868;74.608;2022-10-23T07:43:32;0.00;;;0.00;;
33527;SDS011;19861;42.868;74.608;2022-10-23T07:45:59;9.43;;;3.95;;
33527;SDS011;19861;42.868;74.608;2022-10-23T07:48:26;2.10;;;1.35;;
33527;SDS011;19861;42.868;74.608;2022-10-23T07:50:53;0.30;;;0.30;;
33527;SDS011;19861;42.868;74.608;2022-10-23T07:53:23;0.03;;;0.03;;
33527;SDS011;19861;42.868;74.608;2022-10-23T07:56:00;0.00;;;0.00;;
33527;SDS011;19861;42.868;74.608;2022-10-23T07:58:27;0.13;;;0.13;;
33527;SDS011;19861;42.868;74.608;2022-10-23T08:01:00;0.00;;;0.00;;
33527;SDS011;19861;42.868;74.608;2022-10-23T08:03:29;2.92;;;2.67;;
33527;SDS011;19861;42.868;74.608;2022-10-23T08:05:57;0.00;;;0.00;;
33527;SDS011;19861;42.868;74.608;2022-10-23T08:08:24;13.02;;;11.68;;
33527;SDS011;19861;42.868;74.608;2022-10-23T08:10:51;0.40;;;0.40;;
33527;SDS011;19861;42.868;74.608;2022-10-23T08:13:19;0.00;;;0.00;;
33527;SDS011;19861;42.868;74.608;2022-10-23T08:15:46;0.82;;;0.82;;
33527;SDS011;19861;42.868;74.608;2022-10-23T08:18:14;0.00;;;0.00;;
33527;SDS011;19861;42.868;74.608;2022-10-23T08:20:44;0.70;;;0.55;;
33527;SDS011;19861;42.868;74.608;2022-10-23T08:23:13;0.08;;;0.05;;
33527;SDS011;19861;42.868;74.608;2022-10-23T08:25:42;4.45;;;2.70;;
33527;SDS011;19861;42.868;74.608;2022-10-23T08:28:09;0.00;;;0.00;;
33527;SDS011;19861;42.868;74.608;2022-10-23T08:30:35;2.08;;;1.98;;
33527;SDS011;19861;42.868;74.608;2022-10-23T08:33:03;0.00;;;0.00;;
33527;SDS011;19861;42.868;74.608;2022-10-23T08:35:30;1.88;;;1.77;;
33527;SDS011;19861;42.868;74.608;2022-10-23T08:38:00;1.75;;;0.22;;
33527;SDS011;19861;42.868;74.608;2022-10-23T08:40:26;3.15;;;2.13;;
33527;SDS011;19861;42.868;74.608;2022-10-23T08:43:38;0.43;;;0.43;;
33527;SDS011;19861;42.868;74.608;2022-10-23T08:45:43;0.75;;;0.75;;
33527;SDS011;19861;42.868;74.608;2022-10-23T08:50:48;0.03;;;0.03;;
33527;SDS011;19861;42.868;74.608;2022-10-23T08:55:55;0.60;;;0.60;;
33527;SDS011;19861;42.868;74.608;2022-10-23T09:00:56;6.20;;;3.58;;
33527;SDS011;19861;42.868;74.608;2022-10-23T09:03:22;0.65;;;0.65;;
33527;SDS011;19861;42.868;74.608;2022-10-23T09:17:28;7.55;;;5.45;;
33527;SDS011;19861;42.868;74.608;2022-10-23T09:22:46;4.65;;;3.22;;
33527;SDS011;19861;42.868;74.608;2022-10-23T09:25:19;4.75;;;3.17;;
33527;SDS011;19861;42.868;74.608;2022-10-23T09:27:54;13.65;;;5.65;;
33527;SDS011;19861;42.868;74.608;2022-10-23T09:30:32;19.42;;;12.55;;
33527;SDS011;19861;42.868;74.608;2022-10-23T09:33:12;18.77;;;10.93;;
33527;SDS011;19861;42.868;74.608;2022-10-23T09:35:50;8.57;;;7.70;;
33527;SDS011;19861;42.868;74.608;2022-10-23T09:41:29;15.75;;;7.65;;
33527;SDS011;19861;42.868;74.608;2022-10-23T09:44:16;20.30;;;9.70;;
33527;SDS011;19861;42.868;74.608;2022-10-23T09:46:45;5.40;;;3.35;;
33527;SDS011;19861;42.868;74.608;2022-10-23T09:52:04;21.00;;;11.25;;
33527;SDS011;19861;42.868;74.608;2022-10-23T09:54:47;21.95;;;11.50;;
33527;SDS011;19861;42.868;74.608;2022-10-23T09:57:28;15.77;;;10.20;;
33527;SDS011;19861;42.868;74.608;2022-10-23T10:15:59;14.18;;;9.27;;
33527;SDS011;19861;42.868;74.608;2022-10-23T10:18:39;15.13;;;7.50;;
33527;SDS011;19861;42.868;74.608;2022-10-23T10:21:17;26.58;;;12.32;;
33527;SDS011;19861;42.868;74.608;2022-10-23T10:23:55;8.43;;;7.10;;
33527;SDS011;19861;42.868;74.608;2022-10-23T10:45:30;10.88;;;7.50;;
33527;SDS011;19861;42.868;74.608;2022-10-23T10:50:41;17.30;;;6.95;;
33527;SDS011;19861;42.868;74.608;2022-10-23T10:55:39;17.38;;;8.07;;
33527;SDS011;19861;42.868;74.608;2022-10-23T11:00:35;10.43;;;4.25;;
33527;SDS011;19861;42.868;74.608;2022-10-23T11:05:41;14.85;;;7.05;;
33527;SDS011;19861;42.868;74.608;2022-10-23T11:10:34;21.67;;;11.35;;
33527;SDS011;19861;42.868;74.608;2022-10-23T11:13:03;15.73;;;8.38;;
33527;SDS011;19861;42.868;74.608;2022-10-23T11:15:34;9.18;;;6.88;;
33527;SDS011;19861;42.868;74.608;2022-10-23T11:18:05;7.47;;;4.22;;
33527;SDS011;19861;42.868;74.608;2022-10-23T11:26:02;3.55;;;3.20;;
33527;SDS011;19861;42.868;74.608;2022-10-23T11:28:36;10.25;;;4.95;;
33527;SDS011;19861;42.868;74.608;2022-10-23T11:31:07;16.77;;;7.13;;
33527;SDS011;19861;42.868;74.608;2022-10-23T11:36:19;9.73;;;7.15;;
33527;SDS011;19861;42.868;74.608;2022-10-23T11:38:49;10.52;;;7.60;;
33527;SDS011;19861;42.868;74.608;2022-10-23T11:41:24;16.40;;;8.20;;
33527;SDS011;19861;42.868;74.608;2022-10-23T11:43:51;19.25;;;7.63;;
33527;SDS011;19861;42.868;74.608;2022-10-23T11:48:49;10.93;;;4.53;;
33527;SDS011;19861;42.868;74.608;2022-10-23T11:51:26;13.77;;;7.43;;
33527;SDS011;19861;42.868;74.608;2022-10-23T11:54:03;16.80;;;10.13;;
33527;SDS011;19861;42.868;74.608;2022-10-23T11:56:30;12.90;;;7.90;;
33527;SDS011;19861;42.868;74.608;2022-10-23T11:58:58;15.77;;;7.70;;
33527;SDS011;19861;42.868;74.608;2022-10-23T12:01:42;11.10;;;5.28;;
33527;SDS011;19861;42.868;74.608;2022-10-23T12:06:46;3.97;;;3.65;;
33527;SDS011;19861;42.868;74.608;2022-10-23T12:12:13;7.35;;;2.40;;
33527;SDS011;19861;42.868;74.608;2022-10-23T12:14:49;1.90;;;1.75;;
33527;SDS011;19861;42.868;74.608;2022-10-23T12:19:54;0.08;;;0.08;;
33527;SDS011;19861;42.868;74.608;2022-10-23T12:22:22;2.88;;;2.20;;
33527;SDS011;19861;42.868;74.608;2022-10-23T12:24:54;5.78;;;4.25;;
33527;SDS011;19861;42.868;74.608;2022-10-23T12:27:24;0.65;;;0.65;;
33527;SDS011;19861;42.868;74.608;2022-10-23T12:32:40;3.00;;;2.15;;
33527;SDS011;19861;42.868;74.608;2022-10-23T12:40:20;1.27;;;1.15;;
33527;SDS011;19861;42.868;74.608;2022-10-23T12:42:54;4.22;;;3.58;;
33527;SDS011;19861;42.868;74.608;2022-10-23T12:45:27;0.22;;;0.22;;
33527;SDS011;19861;42.868;74.608;2022-10-23T12:47:55;3.70;;;2.67;;
33527;SDS011;19861;42.868;74.608;2022-10-23T12:53:05;1.60;;;1.45;;
33527;SDS011;19861;42.868;74.608;2022-10-23T12:58:31;7.25;;;3.50;;
33527;SDS011;19861;42.868;74.608;2022-10-23T13:00:59;6.57;;;3.20;;
33527;SDS011;19861;42.868;74.608;2022-10-23T13:03:26;3.03;;;2.72;;
33527;SDS011;19861;42.868;74.608;2022-10-23T13:05:54;2.17;;;2.03;;
33527;SDS011;19861;42.868;74.608;2022-10-23T13:08:22;5.22;;;4.72;;
33527;SDS011;19861;42.868;74.608;2022-10-23T13:10:53;1.38;;;1.10;;
33527;SDS011;19861;42.868;74.608;2022-10-23T13:13:20;5.13;;;3.55;;
33527;SDS011;19861;42.868;74.608;2022-10-23T13:15:48;0.10;;;0.10;;
33527;SDS011;19861;42.868;74.608;2022-10-23T13:18:14;2.03;;;1.67;;
33527;SDS011;19861;42.868;74.608;2022-10-23T13:21:02;1.13;;;0.95;;
33527;SDS011;19861;42.868;74.608;2022-10-23T13:26:00;0.13;;;0.13;;
33527;SDS011;19861;42.868;74.608;2022-10-23T13:28:28;1.80;;;1.70;;
33527;SDS011;19861;42.868;74.608;2022-10-23T13:31:20;4.95;;;2.28;;
33527;SDS011;19861;42.868;74.608;2022-10-23T13:36:24;9.75;;;8.85;;
33527;SDS011;19861;42.868;74.608;2022-10-23T13:41:24;0.35;;;0.35;;
33527;SDS011;19861;42.868;74.608;2022-10-23T13:44:00;9.00;;;5.60;;
33527;SDS011;19861;42.868;74.608;2022-10-23T13:46:26;6.10;;;5.57;;
33527;SDS011;19861;42.868;74.608;2022-10-23T13:48:53;6.72;;;6.18;;
33527;SDS011;19861;42.868;74.608;2022-10-23T13:51:29;1.33;;;1.25;;
33527;SDS011;19861;42.868;74.608;2022-10-23T13:53:58;14.18;;;12.00;;
33527;SDS011;19861;42.868;74.608;2022-10-23T13:56:25;14.60;;;13.55;;
33527;SDS011;19861;42.868;74.608;2022-10-23T13:58:54;4.97;;;4.60;;
33527;SDS011;19861;42.868;74.608;2022-10-23T14:01:42;6.10;;;5.57;;
33527;SDS011;19861;42.868;74.608;2022-10-23T14:04:08;11.30;;;10.75;;
33527;SDS011;19861;42.868;74.608;2022-10-23T14:06:35;15.77;;;11.93;;
33527;SDS011;19861;42.868;74.608;2022-10-23T14:09:06;3.95;;;3.75;;
33527;SDS011;19861;42.868;74.608;2022-10-23T14:11:34;3.55;;;3.35;;
33527;SDS011;19861;42.868;74.608;2022-10-23T14:14:00;4.13;;;3.20;;
33527;SDS011;19861;42.868;74.608;2022-10-23T14:16:27;5.40;;;3.70;;
33527;SDS011;19861;42.868;74.608;2022-10-23T14:18:53;5.03;;;4.82;;
33527;SDS011;19861;42.868;74.608;2022-10-23T14:21:20;5.38;;;2.45;;
33527;SDS011;19861;42.868;74.608;2022-10-23T14:23:48;5.28;;;4.82;;
33527;SDS011;19861;42.868;74.608;2022-10-23T14:26:17;6.57;;;6.32;;
33527;SDS011;19861;42.868;74.608;2022-10-23T14:28:45;0.00;;;0.00;;
33527;SDS011;19861;42.868;74.608;2022-10-23T14:31:15;3.50;;;2.55;;
33527;SDS011;19861;42.868;74.608;2022-10-23T14:33:42;0.82;;;0.82;;
33527;SDS011;19861;42.868;74.608;2022-10-23T14:36:09;8.50;;;7.80;;
33527;SDS011;19861;42.868;74.608;2022-10-23T14:38:35;7.10;;;6.53;;
33527;SDS011;19861;42.868;74.608;2022-10-23T14:41:02;12.43;;;11.93;;
33527;SDS011;19861;42.868;74.608;2022-10-23T14:43:34;31.17;;;18.75;;
33527;SDS011;19861;42.868;74.608;2022-10-23T14:46:13;13.63;;;10.30;;
33527;SDS011;19861;42.868;74.608;2022-10-23T14:48:40;3.30;;;3.10;;
33527;SDS011;19861;42.868;74.608;2022-10-23T14:51:13;0.95;;;0.95;;
33527;SDS011;19861;42.868;74.608;2022-10-23T14:53:40;7.88;;;5.70;;
33527;SDS011;19861;42.868;74.608;2022-10-23T14:56:06;4.72;;;3.42;;
33527;SDS011;19861;42.868;74.608;2022-10-23T14:58:33;6.57;;;5.10;;
33527;SDS011;19861;42.868;74.608;2022-10-23T15:00:59;24.15;;;12.90;;
33527;SDS011;19861;42.868;74.608;2022-10-23T15:03:29;33.80;;;18.63;;
33527;SDS011;19861;42.868;74.608;2022-10-23T15:05:55;56.03;;;28.35;;
33527;SDS011;19861;42.868;74.608;2022-10-23T15:08:22;9.10;;;8.48;;
33527;SDS011;19861;42.868;74.608;2022-10-23T15:10:49;26.75;;;12.90;;
33527;SDS011;19861;42.868;74.608;2022-10-23T15:13:15;11.60;;;7.43;;
33527;SDS011;19861;42.868;74.608;2022-10-23T15:15:42;10.85;;;6.72;;
33527;SDS011;19861;42.868;74.608;2022-10-23T15:18:09;4.78;;;4.25;;
33527;SDS011;19861;42.868;74.608;2022-10-23T15:20:35;12.65;;;9.93;;
33527;SDS011;19861;42.868;74.608;2022-10-23T15:23:01;22.70;;;15.15;;
33527;SDS011;19861;42.868;74.608;2022-10-23T15:25:28;37.33;;;18.42;;
33527;SDS011;19861;42.868;74.608;2022-10-23T15:27:54;2.20;;;2.10;;
33527;SDS011;19861;42.868;74.608;2022-10-23T15:30:20;13.45;;;8.18;;
33527;SDS011;19861;42.868;74.608;2022-10-23T15:32:47;5.70;;;5.28;;
33527;SDS011;19861;42.868;74.608;2022-10-23T15:35:13;1.48;;;1.42;;
33527;SDS011;19861;42.868;74.608;2022-10-23T15:37:40;1.67;;;1.60;;
33527;SDS011;19861;42.868;74.608;2022-10-23T15:40:06;11.25;;;6.53;;
33527;SDS011;19861;42.868;74.608;2022-10-23T15:42:33;16.23;;;9.63;;
33527;SDS011;19861;42.868;74.608;2022-10-23T15:45:01;6.30;;;3.97;;
33527;SDS011;19861;42.868;74.608;2022-10-23T15:47:27;7.50;;;5.32;;
33527;SDS011;19861;42.868;74.608;2022-10-23T15:49:54;0.93;;;0.70;;
33527;SDS011;19861;42.868;74.608;2022-10-23T15:52:20;0.00;;;0.00;;
33527;SDS011;19861;42.868;74.608;2022-10-23T15:54:46;12.30;;;6.40;;
33527;SDS011;19861;42.868;74.608;2022-10-23T15:57:12;11.30;;;8.57;;
33527;SDS011;19861;42.868;74.608;2022-10-23T15:59:39;0.00;;;0.00;;
33527;SDS011;19861;42.868;74.608;2022-10-23T16:02:05;0.60;;;0.60;;
33527;SDS011;19861;42.868;74.608;2022-10-23T16:04:32;8.90;;;6.53;;
33527;SDS011;19861;42.868;74.608;2022-10-23T16:06:59;23.38;;;13.27;;
33527;SDS011;19861;42.868;74.608;2022-10-23T16:09:25;0.05;;;0.05;;
33527;SDS011;19861;42.868;74.608;2022-10-23T16:11:52;4.75;;;4.53;;
33527;SDS011;19861;42.868;74.608;2022-10-23T16:14:18;15.27;;;9.57;;
33527;SDS011;19861;42.868;74.608;2022-10-23T16:16:44;0.60;;;0.60;;
33527;SDS011;19861;42.868;74.608;2022-10-23T16:19:11;0.82;;;0.82;;
33527;SDS011;19861;42.868;74.608;2022-10-23T16:21:37;29.13;;;5.53;;
33527;SDS011;19861;42.868;74.608;2022-10-23T16:24:04;14.57;;;13.85;;
33527;SDS011;19861;42.868;74.608;2022-10-23T16:26:32;6.38;;;4.78;;
33527;SDS011;19861;42.868;74.608;2022-10-23T16:28:59;9.00;;;7.80;;
33527;SDS011;19861;42.868;74.608;2022-10-23T16:31:26;1.05;;;0.95;;
33527;SDS011;19861;42.868;74.608;2022-10-23T16:33:55;1.55;;;1.40;;
33527;SDS011;19861;42.868;74.608;2022-10-23T16:36:21;8.18;;;3.60;;
33527;SDS011;19861;42.868;74.608;2022-10-23T16:38:48;13.40;;;9.13;;
33527;SDS011;19861;42.868;74.608;2022-10-23T16:41:14;14.88;;;5.50;;
33527;SDS011;19861;42.868;74.608;2022-10-23T16:43:40;6.00;;;4.80;;
33527;SDS011;19861;42.868;74.608;2022-10-23T16:46:09;6.53;;;3.72;;
33527;SDS011;19861;42.868;74.608;2022-10-23T16:48:36;0.00;;;0.00;;
33527;SDS011;19861;42.868;74.608;2022-10-23T16:51:06;5.38;;;2.67;;
33527;SDS011;19861;42.868;74.608;2022-10-23T16:53:33;0.25;;;0.25;;
33527;SDS011;19861;42.868;74.608;2022-10-23T16:55:59;0.52;;;0.52;;
33527;SDS011;19861;42.868;74.608;2022-10-23T16:58:25;0.70;;;0.70;;
33527;SDS011;19861;42.868;74.608;2022-10-23T17:01:12;0.00;;;0.00;;
33527;SDS011;19861;42.868;74.608;2022-10-23T17:03:39;1.10;;;1.02;;
33527;SDS011;19861;42.868;74.608;2022-10-23T17:06:08;2.25;;;1.95;;